Flugplatz Mosbach-Lohrbach

Für EDGM sind keine METAR/TAF Berichte vorhanden.
Es werden die Flugwettermeldungen vom Flugplatz Mannheim-City in 44 km Entfernung angezeigt.

Bericht für EDFM

vom 14.08. um 07:50 UTC

Wind 4 kt aus 140°

Sichtweite 10 km oder mehr

gute Sicht, keine Wolken < 5000 ft, keine CB, keine Wettererscheinungen (CAVOK)

Temperatur 23.0°C

Taupunkt 18.0°C

Luftfeuchtigkeit 73%

Luftdruck 1014 hPa

EDFM 140750Z 14004KT 110V180 CAVOK 23/18 Q1014

Prognose für EDFM

vom 14.08. um 07:16 UTC

Zwischen 08:00 UTC und 15:00 UTC

Wind 5 kt aus 200°

Sichtweite 10 km oder mehr

keine signifikanten Wettererscheinungen

keine Wolken


Zwischen 10:00 UTC und 15:00 UTC zeitweise

Regenschauer

aufgelockert bewölkt in 4500 ft


Zwischen 12:00 UTC und 15:00 UTC zeitweise mit einer Wahrscheinlichkeit von 40%

Sichtweite 4000 m

Code: TSRA

TAF EDFM 140716Z 1408/1415 20005KT CAVOK TEMPO 1410/1415 SHRA SCT045CB PROB40 TEMPO 1412/1415 4000 TSRA
Impressum